Canutillo, Texas
Current Conditions -  °F | °C
As of 12:58 PM on Thursday 18 Dec 2014 (Local Time) from KBIF Reporting Station
Overcast Overcast  
Wind Chill: 52°   Ceiling: 12000
Heat Index: 52°   Visibility: 10mi
Dew Point: 35°   Wind: 5mph
Humidity: 52%   Direction: 200°SSW
Pressure: 30.08"   Gusts: NA
Location:  31.91°N, 106.6°W
Report Text: KBIF 181958Z 20004KT 10SM SCT060 OVC120 11/02 A3008 RMK AO2A SLP166 T01130018
Loading
Personal Weather Stations






























Interactive Weather Map New forecast layout! Learn more

10-Day Weather Forecast

Advertisements
Track Severe Weather on mobile